sensor_id;sensor_type;location;lat;lon;timestamp;pressure;altitude;pressure_sealevel;temperature;humidity
55675;BME280;41562;44.330;23.802;2023-07-31T00:03:11;99565.47;;;22.38;100.00
55675;BME280;41562;44.330;23.802;2023-07-31T00:05:46;99573.66;;;22.65;100.00
55675;BME280;41562;44.330;23.802;2023-07-31T00:08:17;99563.50;;;22.62;100.00
55675;BME280;41562;44.330;23.802;2023-07-31T00:10:52;99563.41;;;22.55;100.00
55675;BME280;41562;44.330;23.802;2023-07-31T00:13:25;99565.72;;;22.53;100.00
55675;BME280;41562;44.330;23.802;2023-07-31T00:15:59;99568.78;;;22.51;100.00
55675;BME280;41562;44.330;23.802;2023-07-31T00:18:36;99570.53;;;22.63;100.00
55675;BME280;41562;44.330;23.802;2023-07-31T00:21:17;99564.81;;;22.45;100.00
55675;BME280;41562;44.330;23.802;2023-07-31T00:23:51;99557.50;;;22.49;100.00
55675;BME280;41562;44.330;23.802;2023-07-31T00:26:24;99560.63;;;22.51;100.00
55675;BME280;41562;44.330;23.802;2023-07-31T00:28:58;99558.09;;;22.39;100.00
55675;BME280;41562;44.330;23.802;2023-07-31T00:31:31;99550.03;;;22.46;100.00
55675;BME280;41562;44.330;23.802;2023-07-31T00:34:05;99555.06;;;22.70;100.00
55675;BME280;41562;44.330;23.802;2023-07-31T00:36:32;99553.28;;;22.55;100.00
55675;BME280;41562;44.330;23.802;2023-07-31T00:39:08;99544.59;;;22.46;100.00
55675;BME280;41562;44.330;23.802;2023-07-31T00:41:38;99554.34;;;22.47;100.00
55675;BME280;41562;44.330;23.802;2023-07-31T00:44:09;99559.94;;;22.58;100.00
55675;BME280;41562;44.330;23.802;2023-07-31T00:46:42;99564.91;;;22.52;100.00
55675;BME280;41562;44.330;23.802;2023-07-31T00:49:13;99550.25;;;22.60;100.00
55675;BME280;41562;44.330;23.802;2023-07-31T00:51:48;99555.50;;;22.46;100.00
55675;BME280;41562;44.330;23.802;2023-07-31T00:54:15;99556.28;;;22.46;100.00
55675;BME280;41562;44.330;23.802;2023-07-31T00:56:46;99551.75;;;22.58;100.00
55675;BME280;41562;44.330;23.802;2023-07-31T00:59:20;99542.50;;;22.62;100.00
55675;BME280;41562;44.330;23.802;2023-07-31T01:01:54;99548.34;;;22.64;100.00
55675;BME280;41562;44.330;23.802;2023-07-31T01:04:22;99547.06;;;22.55;100.00
55675;BME280;41562;44.330;23.802;2023-07-31T01:09:51;99545.91;;;22.56;100.00
55675;BME280;41562;44.330;23.802;2023-07-31T01:12:27;99549.44;;;22.56;100.00
55675;BME280;41562;44.330;23.802;2023-07-31T01:15:06;99548.47;;;22.45;100.00
55675;BME280;41562;44.330;23.802;2023-07-31T01:17:41;99551.78;;;22.31;100.00
55675;BME280;41562;44.330;23.802;2023-07-31T01:20:20;99539.13;;;22.46;100.00
55675;BME280;41562;44.330;23.802;2023-07-31T01:31:30;99525.69;;;22.30;100.00
55675;BME280;41562;44.330;23.802;2023-07-31T01:34:01;99524.91;;;22.30;100.00
55675;BME280;41562;44.330;23.802;2023-07-31T01:36:35;99525.72;;;22.34;100.00
55675;BME280;41562;44.330;23.802;2023-07-31T01:39:06;99520.28;;;22.34;100.00
55675;BME280;41562;44.330;23.802;2023-07-31T01:41:42;99523.75;;;22.31;100.00
55675;BME280;41562;44.330;23.802;2023-07-31T01:44:15;99530.19;;;22.19;100.00
55675;BME280;41562;44.330;23.802;2023-07-31T01:46:57;99523.16;;;22.18;100.00
55675;BME280;41562;44.330;23.802;2023-07-31T01:49:30;99523.97;;;22.19;100.00
55675;BME280;41562;44.330;23.802;2023-07-31T01:52:04;99523.16;;;22.18;100.00
55675;BME280;41562;44.330;23.802;2023-07-31T01:54:32;99523.84;;;22.12;100.00
55675;BME280;41562;44.330;23.802;2023-07-31T01:57:06;99522.03;;;22.19;100.00
55675;BME280;41562;44.330;23.802;2023-07-31T01:59:36;99520.69;;;22.10;100.00
55675;BME280;41562;44.330;23.802;2023-07-31T02:02:10;99531.03;;;22.00;100.00
55675;BME280;41562;44.330;23.802;2023-07-31T02:04:41;99530.69;;;22.02;100.00
55675;BME280;41562;44.330;23.802;2023-07-31T02:07:11;99530.94;;;22.20;100.00
55675;BME280;41562;44.330;23.802;2023-07-31T02:09:41;99530.88;;;22.13;100.00
55675;BME280;41562;44.330;23.802;2023-07-31T02:12:14;99523.78;;;22.08;100.00
55675;BME280;41562;44.330;23.802;2023-07-31T02:14:44;99519.63;;;21.95;100.00
55675;BME280;41562;44.330;23.802;2023-07-31T02:17:17;99524.41;;;21.98;100.00
55675;BME280;41562;44.330;23.802;2023-07-31T02:19:44;99527.59;;;22.03;100.00
55675;BME280;41562;44.330;23.802;2023-07-31T02:22:18;99533.34;;;21.98;100.00
55675;BME280;41562;44.330;23.802;2023-07-31T02:24:48;99528.97;;;21.94;100.00
55675;BME280;41562;44.330;23.802;2023-07-31T02:27:19;99529.75;;;21.94;100.00
55675;BME280;41562;44.330;23.802;2023-07-31T02:29:55;99533.13;;;21.88;100.00
55675;BME280;41562;44.330;23.802;2023-07-31T02:32:26;99537.06;;;21.90;100.00
55675;BME280;41562;44.330;23.802;2023-07-31T02:35:01;99533.63;;;21.93;100.00
55675;BME280;41562;44.330;23.802;2023-07-31T02:37:34;99533.75;;;22.00;100.00
55675;BME280;41562;44.330;23.802;2023-07-31T02:40:03;99530.69;;;22.02;100.00
55675;BME280;41562;44.330;23.802;2023-07-31T02:42:44;99538.38;;;21.96;100.00
55675;BME280;41562;44.330;23.802;2023-07-31T02:45:17;99536.44;;;21.97;100.00
55675;BME280;41562;44.330;23.802;2023-07-31T02:47:44;99540.13;;;22.08;100.00
55675;BME280;41562;44.330;23.802;2023-07-31T02:50:17;99540.13;;;22.08;100.00
55675;BME280;41562;44.330;23.802;2023-07-31T02:52:47;99534.78;;;22.15;100.00
55675;BME280;41562;44.330;23.802;2023-07-31T02:55:21;99533.03;;;22.03;100.00
55675;BME280;41562;44.330;23.802;2023-07-31T02:57:50;99540.94;;;21.89;100.00
55675;BME280;41562;44.330;23.802;2023-07-31T03:00:21;99539.94;;;21.97;100.00
55675;BME280;41562;44.330;23.802;2023-07-31T03:02:55;99536.66;;;22.11;100.00
55675;BME280;41562;44.330;23.802;2023-07-31T03:05:35;99531.94;;;21.85;100.00
55675;BME280;41562;44.330;23.802;2023-07-31T03:08:08;99526.38;;;21.78;100.00
55675;BME280;41562;44.330;23.802;2023-07-31T03:10:44;99528.38;;;21.81;100.00
55675;BME280;41562;44.330;23.802;2023-07-31T03:13:13;99536.25;;;21.86;100.00
55675;BME280;41562;44.330;23.802;2023-07-31T03:15:48;99534.19;;;21.80;100.00
55675;BME280;41562;44.330;23.802;2023-07-31T03:18:21;99527.81;;;21.72;100.00
55675;BME280;41562;44.330;23.802;2023-07-31T03:20:49;99525.53;;;21.74;100.00
55675;BME280;41562;44.330;23.802;2023-07-31T03:23:22;99524.00;;;21.77;100.00
55675;BME280;41562;44.330;23.802;2023-07-31T03:26:01;99526.25;;;21.71;100.00
55675;BME280;41562;44.330;23.802;2023-07-31T03:28:29;99533.03;;;22.03;100.00
55675;BME280;41562;44.330;23.802;2023-07-31T03:31:00;99544.81;;;22.87;100.00
55675;BME280;41562;44.330;23.802;2023-07-31T03:33:31;99551.22;;;23.35;100.00
55675;BME280;41562;44.330;23.802;2023-07-31T03:36:07;99550.00;;;23.65;100.00
55675;BME280;41562;44.330;23.802;2023-07-31T03:38:34;99562.84;;;24.02;100.00
55675;BME280;41562;44.330;23.802;2023-07-31T03:41:08;99572.13;;;23.94;100.00
55675;BME280;41562;44.330;23.802;2023-07-31T03:43:38;99569.91;;;24.07;100.00
55675;BME280;41562;44.330;23.802;2023-07-31T03:46:13;99570.94;;;23.91;100.00
55675;BME280;41562;44.330;23.802;2023-07-31T03:48:46;99571.53;;;23.71;100.00
55675;BME280;41562;44.330;23.802;2023-07-31T03:51:17;99574.50;;;23.99;100.00
55675;BME280;41562;44.330;23.802;2023-07-31T03:53:52;99579.56;;;23.97;100.00
55675;BME280;41562;44.330;23.802;2023-07-31T03:56:24;99581.97;;;24.02;99.94
55675;BME280;41562;44.330;23.802;2023-07-31T03:58:54;99577.00;;;24.15;99.16
55675;BME280;41562;44.330;23.802;2023-07-31T04:01:30;99584.41;;;24.14;99.62
55675;BME280;41562;44.330;23.802;2023-07-31T04:03:57;99585.38;;;23.92;99.82
55675;BME280;41562;44.330;23.802;2023-07-31T04:06:29;99583.94;;;24.05;99.97
55675;BME280;41562;44.330;23.802;2023-07-31T04:08:59;99586.94;;;23.93;100.00
55675;BME280;41562;44.330;23.802;2023-07-31T04:11:30;99588.47;;;23.90;100.00
55675;BME280;41562;44.330;23.802;2023-07-31T04:13:57;99582.00;;;24.09;100.00
55675;BME280;41562;44.330;23.802;2023-07-31T04:16:27;99577.72;;;24.56;100.00
55675;BME280;41562;44.330;23.802;2023-07-31T04:18:58;99580.75;;;24.43;100.00
55675;BME280;41562;44.330;23.802;2023-07-31T04:21:31;99575.28;;;24.40;100.00
55675;BME280;41562;44.330;23.802;2023-07-31T04:23:58;99583.50;;;24.43;100.00
55675;BME280;41562;44.330;23.802;2023-07-31T04:26:32;99596.25;;;24.29;100.00
55675;BME280;41562;44.330;23.802;2023-07-31T04:29:06;99592.91;;;24.02;100.00
55675;BME280;41562;44.330;23.802;2023-07-31T04:31:36;99591.19;;;23.87;100.00
55675;BME280;41562;44.330;23.802;2023-07-31T04:34:05;99589.19;;;23.84;100.00
55675;BME280;41562;44.330;23.802;2023-07-31T04:36:45;99583.19;;;23.68;100.00
55675;BME280;41562;44.330;23.802;2023-07-31T04:39:13;99574.06;;;23.90;100.00
55675;BME280;41562;44.330;23.802;2023-07-31T04:41:43;99582.69;;;23.95;100.00
55675;BME280;41562;44.330;23.802;2023-07-31T04:44:19;99587.00;;;23.59;100.00
55675;BME280;41562;44.330;23.802;2023-07-31T04:46:51;99593.84;;;23.80;100.00
55675;BME280;41562;44.330;23.802;2023-07-31T04:49:21;99597.56;;;23.31;100.00
55675;BME280;41562;44.330;23.802;2023-07-31T04:51:51;99598.16;;;23.47;100.00
55675;BME280;41562;44.330;23.802;2023-07-31T04:54:21;99603.88;;;23.69;100.00
55675;BME280;41562;44.330;23.802;2023-07-31T04:56:52;99593.03;;;23.76;100.00
55675;BME280;41562;44.330;23.802;2023-07-31T04:59:22;99586.00;;;23.75;100.00
55675;BME280;41562;44.330;23.802;2023-07-31T05:01:49;99590.81;;;23.88;100.00
55675;BME280;41562;44.330;23.802;2023-07-31T05:04:20;99598.56;;;23.83;100.00
55675;BME280;41562;44.330;23.802;2023-07-31T05:06:51;99599.00;;;23.51;100.00
55675;BME280;41562;44.330;23.802;2023-07-31T05:09:22;99601.91;;;23.36;100.00
55675;BME280;41562;44.330;23.802;2023-07-31T05:11:52;99601.34;;;23.19;100.00
55675;BME280;41562;44.330;23.802;2023-07-31T05:14:22;99605.09;;;23.41;100.00
55675;BME280;41562;44.330;23.802;2023-07-31T05:16:56;99607.19;;;23.88;100.00
55675;BME280;41562;44.330;23.802;2023-07-31T05:19:23;99616.50;;;23.84;100.00
55675;BME280;41562;44.330;23.802;2023-07-31T05:21:53;99614.34;;;23.63;100.00
55675;BME280;41562;44.330;23.802;2023-07-31T05:24:24;99608.72;;;23.86;100.00
55675;BME280;41562;44.330;23.802;2023-07-31T05:26:55;99613.44;;;23.89;100.00
55675;BME280;41562;44.330;23.802;2023-07-31T05:29:29;99603.91;;;23.72;100.00
55675;BME280;41562;44.330;23.802;2023-07-31T05:31:56;99607.06;;;23.78;100.00
55675;BME280;41562;44.330;23.802;2023-07-31T05:34:29;99614.78;;;23.69;100.00
55675;BME280;41562;44.330;23.802;2023-07-31T05:36:59;99625.91;;;23.86;100.00
55675;BME280;41562;44.330;23.802;2023-07-31T05:39:32;99621.38;;;24.01;100.00
55675;BME280;41562;44.330;23.802;2023-07-31T05:42:00;99624.38;;;23.89;100.00
55675;BME280;41562;44.330;23.802;2023-07-31T05:44:30;99625.72;;;23.69;100.00
55675;BME280;41562;44.330;23.802;2023-07-31T05:47:01;99628.09;;;23.74;100.00
55675;BME280;41562;44.330;23.802;2023-07-31T05:49:35;99630.41;;;23.72;100.00
55675;BME280;41562;44.330;23.802;2023-07-31T05:52:08;99634.69;;;23.69;100.00
55675;BME280;41562;44.330;23.802;2023-07-31T05:54:41;99638.94;;;23.67;100.00
55675;BME280;41562;44.330;23.802;2023-07-31T05:57:14;99626.50;;;23.69;100.00
55675;BME280;41562;44.330;23.802;2023-07-31T05:59:42;99632.13;;;23.83;100.00
55675;BME280;41562;44.330;23.802;2023-07-31T06:02:12;99641.72;;;24.07;100.00
55675;BME280;41562;44.330;23.802;2023-07-31T06:04:46;99641.38;;;24.12;100.00
55675;BME280;41562;44.330;23.802;2023-07-31T06:07:22;99644.03;;;24.05;100.00
55675;BME280;41562;44.330;23.802;2023-07-31T06:09:49;99649.34;;;23.91;100.00
55675;BME280;41562;44.330;23.802;2023-07-31T06:12:17;99657.25;;;23.99;100.00
55675;BME280;41562;44.330;23.802;2023-07-31T06:14:50;99645.78;;;24.20;100.00
55675;BME280;41562;44.330;23.802;2023-07-31T06:17:31;99647.88;;;24.37;100.00
55675;BME280;41562;44.330;23.802;2023-07-31T06:20:01;99642.91;;;24.54;100.00
55675;BME280;41562;44.330;23.802;2023-07-31T06:22:35;99642.66;;;24.66;100.00
55675;BME280;41562;44.330;23.802;2023-07-31T06:25:08;99644.56;;;24.62;100.00
55675;BME280;41562;44.330;23.802;2023-07-31T06:27:47;99649.09;;;24.43;100.00
55675;BME280;41562;44.330;23.802;2023-07-31T06:30:18;99652.31;;;24.53;100.00
55675;BME280;41562;44.330;23.802;2023-07-31T06:32:52;99645.50;;;24.32;100.00
55675;BME280;41562;44.330;23.802;2023-07-31T06:35:25;99658.50;;;24.46;100.00
55675;BME280;41562;44.330;23.802;2023-07-31T06:37:58;99667.81;;;24.41;100.00
55675;BME280;41562;44.330;23.802;2023-07-31T06:40:31;99670.25;;;24.54;100.00
55675;BME280;41562;44.330;23.802;2023-07-31T06:43:05;99675.72;;;24.50;100.00
55675;BME280;41562;44.330;23.802;2023-07-31T06:45:37;99675.56;;;24.32;100.00
55675;BME280;41562;44.330;23.802;2023-07-31T06:48:15;99670.38;;;24.24;100.00
55675;BME280;41562;44.330;23.802;2023-07-31T06:50:48;99676.53;;;24.17;100.00
55675;BME280;41562;44.330;23.802;2023-07-31T06:53:20;99673.72;;;24.07;100.00
55675;BME280;41562;44.330;23.802;2023-07-31T06:55:51;99673.91;;;24.24;100.00
55675;BME280;41562;44.330;23.802;2023-07-31T06:58:25;99670.69;;;24.15;100.00
55675;BME280;41562;44.330;23.802;2023-07-31T07:00:52;99673.63;;;24.33;100.00
55675;BME280;41562;44.330;23.802;2023-07-31T07:03:22;99677.06;;;24.26;100.00
55675;BME280;41562;44.330;23.802;2023-07-31T07:05:51;99682.72;;;24.11;100.00
55675;BME280;41562;44.330;23.802;2023-07-31T07:08:18;99679.78;;;23.89;100.00
55675;BME280;41562;44.330;23.802;2023-07-31T07:10:55;99684.53;;;23.96;100.00
55675;BME280;41562;44.330;23.802;2023-07-31T07:13:22;99683.31;;;23.90;100.00
55675;BME280;41562;44.330;23.802;2023-07-31T07:15:52;99682.09;;;23.87;100.00
55675;BME280;41562;44.330;23.802;2023-07-31T07:18:20;99686.78;;;23.90;100.00
55675;BME280;41562;44.330;23.802;2023-07-31T07:20:52;99695.50;;;24.03;100.00
55675;BME280;41562;44.330;23.802;2023-07-31T07:23:22;99696.63;;;23.95;100.00
55675;BME280;41562;44.330;23.802;2023-07-31T07:25:56;99698.56;;;23.94;100.00
55675;BME280;41562;44.330;23.802;2023-07-31T07:28:27;99697.00;;;23.97;100.00
55675;BME280;41562;44.330;23.802;2023-07-31T07:30:58;99707.50;;;23.91;100.00
55675;BME280;41562;44.330;23.802;2023-07-31T07:33:29;99702.56;;;24.04;100.00
55675;BME280;41562;44.330;23.802;2023-07-31T07:35:59;99705.28;;;24.04;100.00
55675;BME280;41562;44.330;23.802;2023-07-31T07:38:38;99709.69;;;24.16;100.00
55675;BME280;41562;44.330;23.802;2023-07-31T07:41:07;99711.91;;;24.03;100.00
55675;BME280;41562;44.330;23.802;2023-07-31T07:43:37;99714.47;;;24.22;100.00
55675;BME280;41562;44.330;23.802;2023-07-31T07:46:04;99723.69;;;24.11;100.00
55675;BME280;41562;44.330;23.802;2023-07-31T07:48:33;99721.34;;;24.09;100.00
55675;BME280;41562;44.330;23.802;2023-07-31T07:51:03;99725.28;;;24.12;100.00
55675;BME280;41562;44.330;23.802;2023-07-31T07:53:31;99725.41;;;24.22;100.00
55675;BME280;41562;44.330;23.802;2023-07-31T07:56:01;99724.25;;;24.23;100.00
55675;BME280;41562;44.330;23.802;2023-07-31T07:58:37;99724.81;;;24.39;100.00
55675;BME280;41562;44.330;23.802;2023-07-31T08:01:07;99735.06;;;24.50;100.00
55675;BME280;41562;44.330;23.802;2023-07-31T08:03:41;99722.03;;;24.80;100.00
55675;BME280;41562;44.330;23.802;2023-07-31T08:06:09;99730.25;;;24.80;100.00
55675;BME280;41562;44.330;23.802;2023-07-31T08:08:42;99735.91;;;24.57;100.00
55675;BME280;41562;44.330;23.802;2023-07-31T08:11:13;99733.97;;;24.58;100.00
55675;BME280;41562;44.330;23.802;2023-07-31T08:13:49;99733.53;;;24.52;100.00
55675;BME280;41562;44.330;23.802;2023-07-31T08:16:24;99730.91;;;24.66;100.00
55675;BME280;41562;44.330;23.802;2023-07-31T08:18:51;99732.88;;;24.66;100.00
55675;BME280;41562;44.330;23.802;2023-07-31T08:21:21;99732.81;;;24.59;100.00
55675;BME280;41562;44.330;23.802;2023-07-31T08:23:52;99732.97;;;24.80;100.00
55675;BME280;41562;44.330;23.802;2023-07-31T08:26:23;99731.66;;;25.04;100.00
55675;BME280;41562;44.330;23.802;2023-07-31T08:28:53;99731.88;;;25.43;100.00
55675;BME280;41562;44.330;23.802;2023-07-31T08:31:21;99734.03;;;25.78;98.95
55675;BME280;41562;44.330;23.802;2023-07-31T08:33:56;99738.41;;;25.96;97.75
55675;BME280;41562;44.330;23.802;2023-07-31T08:36:27;99740.81;;;26.16;95.83
55675;BME280;41562;44.330;23.802;2023-07-31T08:38:59;99735.03;;;26.35;94.42
55675;BME280;41562;44.330;23.802;2023-07-31T08:41:31;99737.41;;;26.54;93.30
55675;BME280;41562;44.330;23.802;2023-07-31T08:43:59;99744.84;;;26.57;91.40
55675;BME280;41562;44.330;23.802;2023-07-31T08:46:33;99746.00;;;26.56;91.50
55675;BME280;41562;44.330;23.802;2023-07-31T08:49:04;99743.66;;;26.65;90.68
55675;BME280;41562;44.330;23.802;2023-07-31T08:51:35;99746.41;;;26.72;90.56
55675;BME280;41562;44.330;23.802;2023-07-31T08:54:04;99742.09;;;26.57;90.25
55675;BME280;41562;44.330;23.802;2023-07-31T08:56:35;99745.63;;;26.47;87.90
55675;BME280;41562;44.330;23.802;2023-07-31T08:59:08;99745.59;;;26.43;88.24
55675;BME280;41562;44.330;23.802;2023-07-31T09:01:43;99742.88;;;26.47;86.87
55675;BME280;41562;44.330;23.802;2023-07-31T09:04:18;99742.47;;;26.56;85.29
55675;BME280;41562;44.330;23.802;2023-07-31T09:06:47;99739.34;;;26.57;86.21
55675;BME280;41562;44.330;23.802;2023-07-31T09:09:15;99740.94;;;26.72;86.48
55675;BME280;41562;44.330;23.802;2023-07-31T09:11:53;99749.16;;;26.65;88.42
55675;BME280;41562;44.330;23.802;2023-07-31T09:14:25;99745.63;;;26.75;89.96
55675;BME280;41562;44.330;23.802;2023-07-31T09:17:03;99740.13;;;26.82;89.47
55675;BME280;41562;44.330;23.802;2023-07-31T09:19:39;99740.94;;;26.79;90.04
55675;BME280;41562;44.330;23.802;2023-07-31T09:22:11;99741.31;;;26.81;91.19
55675;BME280;41562;44.330;23.802;2023-07-31T09:24:42;99742.09;;;26.61;89.40
55675;BME280;41562;44.330;23.802;2023-07-31T09:27:19;99734.66;;;26.65;89.87
55675;BME280;41562;44.330;23.802;2023-07-31T09:29:58;99739.38;;;26.78;93.23
55675;BME280;41562;44.330;23.802;2023-07-31T09:32:33;99726.03;;;27.02;88.44
55675;BME280;41562;44.330;23.802;2023-07-31T09:35:19;99729.13;;;27.36;83.39
55675;BME280;41562;44.330;23.802;2023-07-31T09:37:55;99729.84;;;27.65;83.96
55675;BME280;41562;44.330;23.802;2023-07-31T09:40:33;99725.09;;;27.76;82.06
55675;BME280;41562;44.330;23.802;2023-07-31T09:43:06;99718.84;;;27.65;83.80
55675;BME280;41562;44.330;23.802;2023-07-31T09:45:40;99716.53;;;27.38;83.98
55675;BME280;41562;44.330;23.802;2023-07-31T09:48:16;99713.41;;;27.40;86.04
55675;BME280;41562;44.330;23.802;2023-07-31T09:50:54;99717.41;;;27.07;87.29
55675;BME280;41562;44.330;23.802;2023-07-31T09:53:31;99711.13;;;26.85;85.45
55675;BME280;41562;44.330;23.802;2023-07-31T09:56:00;99711.91;;;26.82;86.68
55675;BME280;41562;44.330;23.802;2023-07-31T09:58:38;99711.16;;;27.03;88.38
55675;BME280;41562;44.330;23.802;2023-07-31T10:01:12;99712.63;;;27.32;83.69
55675;BME280;41562;44.330;23.802;2023-07-31T10:03:49;99710.25;;;27.52;82.20
55675;BME280;41562;44.330;23.802;2023-07-31T10:06:20;99703.50;;;27.78;85.17
55675;BME280;41562;44.330;23.802;2023-07-31T10:08:49;99702.41;;;27.47;82.16
55675;BME280;41562;44.330;23.802;2023-07-31T10:11:41;99705.13;;;27.57;80.30
55675;BME280;41562;44.330;23.802;2023-07-31T10:14:13;99705.84;;;27.79;80.75
55675;BME280;41562;44.330;23.802;2023-07-31T10:16:43;99706.09;;;28.02;77.79
55675;BME280;41562;44.330;23.802;2023-07-31T10:19:14;99703.34;;;28.06;78.79
55675;BME280;41562;44.330;23.802;2023-07-31T10:21:47;99708.47;;;28.04;75.75
55675;BME280;41562;44.330;23.802;2023-07-31T10:24:23;99696.53;;;27.52;80.49
55675;BME280;41562;44.330;23.802;2023-07-31T10:26:57;99697.78;;;27.23;80.80
55675;BME280;41562;44.330;23.802;2023-07-31T10:29:26;99695.84;;;27.09;80.65
55675;BME280;41562;44.330;23.802;2023-07-31T10:31:56;99693.03;;;27.37;79.24
55675;BME280;41562;44.330;23.802;2023-07-31T10:34:37;99693.66;;;27.77;77.49
55675;BME280;41562;44.330;23.802;2023-07-31T10:37:29;99693.53;;;28.05;75.32
55675;BME280;41562;44.330;23.802;2023-07-31T10:40:03;99696.75;;;27.93;74.61
55675;BME280;41562;44.330;23.802;2023-07-31T10:42:44;99691.75;;;27.74;77.04
55675;BME280;41562;44.330;23.802;2023-07-31T10:45:36;99686.66;;;27.65;74.11
55675;BME280;41562;44.330;23.802;2023-07-31T10:48:17;99690.56;;;27.75;74.10
55675;BME280;41562;44.330;23.802;2023-07-31T10:51:10;99691.28;;;27.86;72.74
55675;BME280;41562;44.330;23.802;2023-07-31T10:53:48;99690.66;;;27.53;75.73
55675;BME280;41562;44.330;23.802;2023-07-31T10:56:24;99685.19;;;27.36;75.62
55675;BME280;41562;44.330;23.802;2023-07-31T10:59:05;99678.16;;;27.24;75.76
55675;BME280;41562;44.330;23.802;2023-07-31T11:01:54;99683.69;;;27.10;76.36
55675;BME280;41562;44.330;23.802;2023-07-31T11:04:26;99670.72;;;27.14;75.88
55675;BME280;41562;44.330;23.802;2023-07-31T11:07:04;99672.66;;;27.31;75.71
55675;BME280;41562;44.330;23.802;2023-07-31T11:09:33;99671.06;;;27.37;71.42
55675;BME280;41562;44.330;23.802;2023-07-31T11:12:15;99660.88;;;27.27;71.97
55675;BME280;41562;44.330;23.802;2023-07-31T11:14:53;99667.56;;;27.19;72.28
55675;BME280;41562;44.330;23.802;2023-07-31T11:17:27;99653.88;;;27.12;75.41
55675;BME280;41562;44.330;23.802;2023-07-31T11:20:08;99666.38;;;27.31;74.48
55675;BME280;41562;44.330;23.802;2023-07-31T11:22:43;99649.56;;;27.18;74.23
55675;BME280;41562;44.330;23.802;2023-07-31T11:25:19;99642.13;;;27.11;76.17
55675;BME280;41562;44.330;23.802;2023-07-31T11:27:53;99644.09;;;27.11;73.29
55675;BME280;41562;44.330;23.802;2023-07-31T11:30:23;99628.66;;;27.38;72.42
55675;BME280;41562;44.330;23.802;2023-07-31T11:33:18;99642.75;;;27.58;70.95
55675;BME280;41562;44.330;23.802;2023-07-31T11:35:52;99643.53;;;27.58;70.85
55675;BME280;41562;44.330;23.802;2023-07-31T11:38:36;99643.16;;;27.56;71.42
55675;BME280;41562;44.330;23.802;2023-07-31T11:41:16;99637.28;;;27.54;72.07
55675;BME280;41562;44.330;23.802;2023-07-31T11:43:59;99635.66;;;27.60;71.87
55675;BME280;41562;44.330;23.802;2023-07-31T11:47:04;99630.88;;;27.79;70.89
55675;BME280;41562;44.330;23.802;2023-07-31T11:49:39;99633.97;;;27.88;70.86
55675;BME280;41562;44.330;23.802;2023-07-31T11:52:10;99634.56;;;28.13;70.70
55675;BME280;41562;44.330;23.802;2023-07-31T11:54:42;99636.03;;;28.28;69.41
55675;BME280;41562;44.330;23.802;2023-07-31T11:57:16;99633.00;;;28.19;67.12
55675;BME280;41562;44.330;23.802;2023-07-31T11:59:51;99632.16;;;28.26;65.67
55675;BME280;41562;44.330;23.802;2023-07-31T12:02:30;99624.09;;;28.46;67.46
55675;BME280;41562;44.330;23.802;2023-07-31T12:05:04;99617.19;;;28.30;67.27
55675;BME280;41562;44.330;23.802;2023-07-31T12:07:49;99621.22;;;28.60;66.24
55675;BME280;41562;44.330;23.802;2023-07-31T12:10:31;99612.31;;;28.49;66.32
55675;BME280;41562;44.330;23.802;2023-07-31T12:13:12;99611.69;;;28.30;66.22
55675;BME280;41562;44.330;23.802;2023-07-31T12:16:00;99609.31;;;28.32;66.13
55675;BME280;41562;44.330;23.802;2023-07-31T12:18:38;99607.31;;;28.36;67.26
55675;BME280;41562;44.330;23.802;2023-07-31T12:21:10;99597.31;;;28.57;65.88
55675;BME280;41562;44.330;23.802;2023-07-31T12:23:46;99597.47;;;28.35;66.52
55675;BME280;41562;44.330;23.802;2023-07-31T12:26:34;99597.31;;;28.05;64.22
55675;BME280;41562;44.330;23.802;2023-07-31T12:29:07;99588.22;;;28.19;63.00
55675;BME280;41562;44.330;23.802;2023-07-31T12:31:41;99595.75;;;28.04;65.00
55675;BME280;41562;44.330;23.802;2023-07-31T12:34:20;99592.72;;;27.88;66.57
55675;BME280;41562;44.330;23.802;2023-07-31T12:36:53;99592.66;;;27.98;66.89
55675;BME280;41562;44.330;23.802;2023-07-31T12:39:30;99581.22;;;28.07;64.66
55675;BME280;41562;44.330;23.802;2023-07-31T12:42:16;99583.50;;;28.19;65.24
55675;BME280;41562;44.330;23.802;2023-07-31T12:44:51;99582.22;;;28.27;64.10
55675;BME280;41562;44.330;23.802;2023-07-31T12:47:32;99578.50;;;28.48;63.31
55675;BME280;41562;44.330;23.802;2023-07-31T12:50:10;99573.41;;;28.47;62.42
55675;BME280;41562;44.330;23.802;2023-07-31T12:52:49;99573.13;;;28.34;62.61
55675;BME280;41562;44.330;23.802;2023-07-31T12:55:29;99568.06;;;28.32;62.69
55675;BME280;41562;44.330;23.802;2023-07-31T12:58:00;99567.94;;;28.43;62.75
55675;BME280;41562;44.330;23.802;2023-07-31T13:00:35;99561.25;;;28.44;61.31
55675;BME280;41562;44.330;23.802;2023-07-31T13:03:14;99556.53;;;28.45;60.65
55675;BME280;41562;44.330;23.802;2023-07-31T13:05:54;99554.22;;;28.39;59.87
55675;BME280;41562;44.330;23.802;2023-07-31T13:08:28;99553.81;;;28.41;59.96
55675;BME280;41562;44.330;23.802;2023-07-31T13:11:02;99551.00;;;28.48;59.98
55675;BME280;41562;44.330;23.802;2023-07-31T13:13:42;99556.53;;;28.45;61.69
55675;BME280;41562;44.330;23.802;2023-07-31T13:16:22;99556.47;;;28.52;60.99
55675;BME280;41562;44.330;23.802;2023-07-31T13:19:05;99556.09;;;28.50;60.71
55675;BME280;41562;44.330;23.802;2023-07-31T13:21:41;99562.72;;;28.56;60.08
55675;BME280;41562;44.330;23.802;2023-07-31T13:24:15;99568.88;;;28.70;58.92
55675;BME280;41562;44.330;23.802;2023-07-31T13:26:49;99565.19;;;28.84;58.73
55675;BME280;41562;44.330;23.802;2023-07-31T13:29:20;99562.44;;;28.84;58.41